Time;durP1;ratioP1;P1;durP2;ratioP2;P2;SDS_P1;SDS_P2;PMS_P1;PMS_P2;Temp;Humidity;BMP_temperature;BMP_pressure;BME280_temperature;BME280_humidity;BME280_pressure;Samples;Min_cycle;Max_cycle;Signal;HPM_P1;HPM_P2
2023/03/19 00:00:08;;;;;;;24.77;10.30;;;;;;;;;;5039240;28;20068;-90
2023/03/19 00:02:35;;;;;;;25.63;11.20;;;;;;;;;;5039246;28;20431;-89
2023/03/19 00:05:01;;;;;;;23.40;10.90;;;;;;;;;;5040120;28;20030;-89
2023/03/19 00:07:27;;;;;;;22.27;10.20;;;;;;;;;;5039136;28;20025;-92
2023/03/19 00:09:53;;;;;;;15.25;8.27;;;;;;;;;;5040096;28;20027;-90
2023/03/19 00:12:19;;;;;;;23.17;9.50;;;;;;;;;;5039242;28;20362;-91
2023/03/19 00:14:46;;;;;;;28.48;11.43;;;;;;;;;;5038851;28;20030;-91
2023/03/19 00:17:12;;;;;;;24.48;9.27;;;;;;;;;;5039915;28;20033;-91
2023/03/19 00:19:38;;;;;;;23.60;9.07;;;;;;;;;;5039828;28;20025;-92
2023/03/19 00:22:04;;;;;;;14.07;7.60;;;;;;;;;;5019184;28;20037;-91
2023/03/19 00:24:31;;;;;;;14.07;7.30;;;;;;;;;;5020274;28;20026;-91
2023/03/19 00:26:57;;;;;;;17.08;7.05;;;;;;;;;;5019610;28;20051;-90
2023/03/19 00:29:23;;;;;;;15.32;7.00;;;;;;;;;;5020129;28;20128;-90
2023/03/19 00:31:49;;;;;;;14.57;7.57;;;;;;;;;;5019812;28;20026;-90
2023/03/19 00:34:18;;;;;;;19.55;8.85;;;;;;;;;;5018951;28;20044;-90
2023/03/19 00:36:45;;;;;;;20.02;9.27;;;;;;;;;;5038222;28;20064;-89
2023/03/19 00:42:29;;;;;;;24.60;10.23;;;;;;;;;;5019791;28;20091;-91
2023/03/19 00:44:55;;;;;;;16.33;8.07;;;;;;;;;;5019036;28;20034;-90
2023/03/19 00:47:21;;;;;;;22.60;9.40;;;;;;;;;;5034211;28;20024;-91
2023/03/19 00:49:47;;;;;;;15.80;8.00;;;;;;;;;;5044963;28;20030;-90
2023/03/19 00:55:17;;;;;;;14.70;8.15;;;;;;;;;;5039407;28;20462;-90
2023/03/19 00:57:43;;;;;;;18.70;8.43;;;;;;;;;;5038050;28;20116;-90
2023/03/19 01:00:10;;;;;;;21.60;8.65;;;;;;;;;;5037748;28;20037;-89
2023/03/19 01:02:36;;;;;;;19.25;8.70;;;;;;;;;;5038135;28;20300;-89
2023/03/19 01:05:02;;;;;;;17.25;8.07;;;;;;;;;;5038192;28;20356;-91
2023/03/19 01:07:32;;;;;;;19.88;8.27;;;;;;;;;;5038145;28;20037;-91
2023/03/19 01:09:58;;;;;;;16.52;8.50;;;;;;;;;;5038848;28;20033;-90
2023/03/19 01:12:25;;;;;;;16.48;9.00;;;;;;;;;;5037377;28;20029;-90
2023/03/19 01:14:51;;;;;;;20.73;9.25;;;;;;;;;;5039101;28;20042;-90
2023/03/19 01:17:17;;;;;;;18.15;8.77;;;;;;;;;;5037812;28;20025;-91
2023/03/19 01:19:43;;;;;;;20.60;9.20;;;;;;;;;;5018912;28;20080;-91
2023/03/19 01:22:09;;;;;;;22.35;9.18;;;;;;;;;;5019400;28;20021;-91
2023/03/19 01:25:12;;;;;;;16.75;8.07;;;;;;;;;;5037802;28;20017;-92
2023/03/19 01:27:39;;;;;;;18.05;8.70;;;;;;;;;;5038357;28;20056;-93
2023/03/19 01:30:06;;;;;;;14.20;7.93;;;;;;;;;;5037504;28;20036;-90
2023/03/19 01:32:32;;;;;;;13.70;7.57;;;;;;;;;;5038697;28;20043;-91
2023/03/19 01:34:59;;;;;;;17.13;8.68;;;;;;;;;;5036891;28;20036;-91
2023/03/19 01:37:43;;;;;;;16.27;7.78;;;;;;;;;;5038494;28;20036;-91
2023/03/19 01:40:12;;;;;;;17.25;8.70;;;;;;;;;;5038414;28;20033;-91
2023/03/19 01:42:55;;;;;;;15.30;7.57;;;;;;;;;;5038293;28;20143;-91
2023/03/19 01:45:34;;;;;;;20.38;8.38;;;;;;;;;;5038570;28;20042;-90
2023/03/19 01:48:01;;;;;;;16.50;8.73;;;;;;;;;;5038435;28;20029;-90
2023/03/19 01:50:30;;;;;;;16.42;7.78;;;;;;;;;;5038251;28;20135;-91
2023/03/19 01:59:40;;;;;;;13.80;6.82;;;;;;;;;;5038111;28;20043;-91
2023/03/19 02:02:16;;;;;;;12.15;7.20;;;;;;;;;;5037361;28;20025;-90
2023/03/19 02:04:44;;;;;;;14.25;7.35;;;;;;;;;;5037139;28;20028;-90
2023/03/19 02:07:11;;;;;;;13.05;7.43;;;;;;;;;;5037829;28;20021;-90
2023/03/19 02:12:41;;;;;;;13.68;8.10;;;;;;;;;;5037923;28;20036;-90
2023/03/19 02:15:07;;;;;;;15.40;8.60;;;;;;;;;;5037706;28;20041;-89
2023/03/19 02:17:33;;;;;;;14.18;7.95;;;;;;;;;;5037529;28;20026;-89
2023/03/19 02:19:59;;;;;;;12.27;7.43;;;;;;;;;;5037664;28;20431;-89
2023/03/19 02:22:27;;;;;;;13.05;7.20;;;;;;;;;;5038086;28;20075;-88
2023/03/19 02:31:14;;;;;;;12.93;6.80;;;;;;;;;;5038074;28;20522;-88
2023/03/19 02:33:40;;;;;;;12.85;6.57;;;;;;;;;;5037924;28;20033;-89
2023/03/19 02:36:10;;;;;;;14.02;7.68;;;;;;;;;;5038307;28;20022;-88
2023/03/19 02:38:36;;;;;;;15.30;7.72;;;;;;;;;;5039282;28;20503;-89
2023/03/19 02:41:03;;;;;;;14.15;8.45;;;;;;;;;;5037525;28;20388;-89
2023/03/19 02:43:30;;;;;;;14.02;6.72;;;;;;;;;;5036441;28;20367;-89
2023/03/19 02:45:56;;;;;;;14.10;7.38;;;;;;;;;;5037680;28;20112;-90
2023/03/19 02:48:22;;;;;;;14.63;6.95;;;;;;;;;;5041561;28;20404;-90
2023/03/19 02:50:48;;;;;;;12.35;6.75;;;;;;;;;;5041447;28;20434;-89
2023/03/19 02:53:14;;;;;;;13.80;7.45;;;;;;;;;;5041656;28;20092;-89
2023/03/19 02:55:41;;;;;;;17.77;7.88;;;;;;;;;;5041241;28;20030;-92
2023/03/19 02:58:07;;;;;;;19.25;9.60;;;;;;;;;;5041246;28;20032;-92
2023/03/19 03:00:33;;;;;;;22.38;9.35;;;;;;;;;;5041270;28;20037;-91
2023/03/19 03:03:00;;;;;;;18.58;9.60;;;;;;;;;;5041484;28;20336;-92
2023/03/19 03:05:26;;;;;;;12.93;6.95;;;;;;;;;;5041300;28;20402;-89
2023/03/19 03:07:52;;;;;;;12.25;6.97;;;;;;;;;;5040234;28;20117;-89
2023/03/19 03:10:19;;;;;;;12.93;6.85;;;;;;;;;;5041008;28;20045;-82
2023/03/19 03:12:45;;;;;;;16.45;8.15;;;;;;;;;;5040847;28;20025;-87
2023/03/19 03:15:11;;;;;;;12.10;7.22;;;;;;;;;;5041143;28;20120;-88
2023/03/19 03:17:41;;;;;;;14.88;7.25;;;;;;;;;;5056877;28;20033;-88
2023/03/19 03:20:08;;;;;;;13.43;7.50;;;;;;;;;;5041139;28;20025;-88
2023/03/19 03:22:34;;;;;;;13.10;7.38;;;;;;;;;;5041158;28;20443;-89
2023/03/19 03:28:04;;;;;;;14.98;7.88;;;;;;;;;;5021222;28;20073;-88
2023/03/19 03:30:30;;;;;;;14.73;7.82;;;;;;;;;;5020007;28;20085;-88
2023/03/19 03:32:57;;;;;;;14.00;7.68;;;;;;;;;;5020950;28;20030;-88
2023/03/19 03:35:23;;;;;;;12.55;6.72;;;;;;;;;;5021144;28;20030;-88
2023/03/19 03:37:52;;;;;;;13.35;7.25;;;;;;;;;;5034950;28;20037;-87
2023/03/19 03:46:25;;;;;;;12.90;7.22;;;;;;;;;;5040754;28;20318;-89
2023/03/19 03:48:51;;;;;;;11.82;6.63;;;;;;;;;;5040779;28;20076;-90
2023/03/19 03:51:17;;;;;;;11.20;6.20;;;;;;;;;;5040652;28;20028;-90
2023/03/19 03:53:44;;;;;;;8.75;5.53;;;;;;;;;;5040467;28;20021;-89
2023/03/19 03:56:10;;;;;;;9.32;6.00;;;;;;;;;;5038836;28;20043;-89
2023/03/19 03:58:36;;;;;;;11.77;6.05;;;;;;;;;;5039965;28;20076;-90
2023/03/19 04:01:02;;;;;;;11.45;6.18;;;;;;;;;;5039079;28;20018;-90
2023/03/19 04:03:28;;;;;;;14.00;8.43;;;;;;;;;;5040538;28;20026;-90
2023/03/19 04:05:55;;;;;;;363.15;170.68;;;;;;;;;;5039874;28;20083;-89
2023/03/19 04:08:22;;;;;;;64.70;38.33;;;;;;;;;;5040153;28;20030;-90
2023/03/19 04:10:48;;;;;;;18.00;10.98;;;;;;;;;;5040280;28;20025;-90
2023/03/19 04:13:14;;;;;;;11.98;7.22;;;;;;;;;;5040446;28;20045;-90
2023/03/19 04:15:43;;;;;;;22.15;13.25;;;;;;;;;;5040382;28;20384;-89
2023/03/19 04:18:10;;;;;;;16.67;10.57;;;;;;;;;;5039872;28;20029;-89
2023/03/19 04:20:36;;;;;;;27.25;17.27;;;;;;;;;;5038933;28;20034;-89
2023/03/19 04:23:02;;;;;;;23.17;12.98;;;;;;;;;;5039010;28;20026;-89
2023/03/19 04:25:28;;;;;;;27.50;13.35;;;;;;;;;;5044077;28;20025;-90
2023/03/19 04:27:56;;;;;;;17.10;8.93;;;;;;;;;;5038909;28;20033;-90
2023/03/19 04:30:22;;;;;;;24.60;11.88;;;;;;;;;;5040017;28;20388;-90
2023/03/19 04:32:48;;;;;;;17.77;8.05;;;;;;;;;;5039916;28;20289;-90
2023/03/19 04:35:14;;;;;;;22.10;9.68;;;;;;;;;;5039920;28;20052;-90
2023/03/19 04:37:47;;;;;;;21.00;10.57;;;;;;;;;;5039517;28;20048;-91
2023/03/19 04:40:13;;;;;;;11.25;6.45;;;;;;;;;;5039641;28;20033;-91
2023/03/19 04:42:40;;;;;;;36.03;14.60;;;;;;;;;;5039461;28;20483;-90
2023/03/19 04:45:06;;;;;;;23.02;10.27;;;;;;;;;;5038424;28;20061;-90
2023/03/19 04:47:32;;;;;;;20.92;11.00;;;;;;;;;;5039594;28;20045;-89
2023/03/19 04:49:58;;;;;;;29.73;14.38;;;;;;;;;;5038250;28;20033;-90
2023/03/19 04:52:24;;;;;;;51.40;24.00;;;;;;;;;;5039211;28;20110;-89
2023/03/19 04:57:54;;;;;;;27.63;15.30;;;;;;;;;;5039444;28;20029;-88
2023/03/19 05:00:20;;;;;;;18.92;10.85;;;;;;;;;;5039235;28;20112;-88
2023/03/19 05:02:46;;;;;;;17.02;8.52;;;;;;;;;;5039042;28;20021;-90
2023/03/19 05:05:13;;;;;;;18.83;8.35;;;;;;;;;;5038765;28;20032;-88
2023/03/19 05:07:40;;;;;;;17.27;8.80;;;;;;;;;;5039310;28;20022;-89
2023/03/19 05:10:21;;;;;;;15.30;8.20;;;;;;;;;;5053874;28;20084;-90
2023/03/19 05:12:48;;;;;;;15.38;7.30;;;;;;;;;;5038720;28;20049;-91
2023/03/19 05:15:14;;;;;;;10.18;6.32;;;;;;;;;;5038747;28;20355;-91
2023/03/19 05:17:41;;;;;;;11.68;6.18;;;;;;;;;;5038709;28;20031;-90
2023/03/19 05:20:08;;;;;;;12.40;7.00;;;;;;;;;;5037719;28;20443;-90
2023/03/19 05:22:34;;;;;;;14.10;8.18;;;;;;;;;;5038611;28;20026;-92
2023/03/19 05:25:00;;;;;;;17.50;8.70;;;;;;;;;;5037704;28;20478;-91
2023/03/19 05:27:26;;;;;;;33.22;13.95;;;;;;;;;;5037785;28;20030;-90
2023/03/19 05:29:52;;;;;;;25.23;12.45;;;;;;;;;;5037665;28;20042;-92
2023/03/19 05:32:19;;;;;;;19.33;9.95;;;;;;;;;;5038813;28;20089;-91
2023/03/19 05:34:45;;;;;;;19.67;9.98;;;;;;;;;;5037545;28;20021;-91
2023/03/19 05:37:11;;;;;;;24.23;11.18;;;;;;;;;;5037484;28;20032;-91
2023/03/19 05:39:37;;;;;;;17.35;9.27;;;;;;;;;;5038405;28;20041;-90
2023/03/19 05:42:04;;;;;;;14.43;8.00;;;;;;;;;;5038598;28;20026;-92
2023/03/19 05:44:30;;;;;;;11.90;7.32;;;;;;;;;;5037423;28;20411;-90
2023/03/19 05:46:56;;;;;;;17.15;8.05;;;;;;;;;;5017857;28;20446;-90
2023/03/19 05:49:22;;;;;;;12.43;7.18;;;;;;;;;;5018821;28;20034;-92
2023/03/19 05:51:48;;;;;;;17.13;7.70;;;;;;;;;;5018710;28;20113;-92
2023/03/19 06:00:22;;;;;;;13.40;6.65;;;;;;;;;;5018046;28;20444;-90
2023/03/19 06:02:48;;;;;;;15.30;7.75;;;;;;;;;;5018435;28;20027;-88
2023/03/19 06:05:14;;;;;;;16.38;8.13;;;;;;;;;;5027973;28;20032;-89
2023/03/19 06:07:42;;;;;;;17.70;8.52;;;;;;;;;;5053043;28;20075;-89
2023/03/19 06:10:08;;;;;;;21.23;7.93;;;;;;;;;;5038151;28;20108;-89
2023/03/19 06:12:35;;;;;;;17.13;6.85;;;;;;;;;;5038904;28;20041;-89
2023/03/19 06:15:01;;;;;;;13.52;6.72;;;;;;;;;;5053976;28;20156;-89
2023/03/19 06:17:27;;;;;;;11.73;6.70;;;;;;;;;;5037757;28;20408;-89
2023/03/19 06:19:53;;;;;;;11.70;6.88;;;;;;;;;;5037555;28;20121;-88
2023/03/19 06:22:20;;;;;;;12.07;6.75;;;;;;;;;;5038064;28;20056;-88
2023/03/19 06:25:23;;;;;;;11.60;6.68;;;;;;;;;;5036904;28;20017;-88
2023/03/19 06:27:50;;;;;;;12.25;7.40;;;;;;;;;;5016864;28;20029;-89
2023/03/19 06:30:16;;;;;;;12.43;7.05;;;;;;;;;;5017801;28;20396;-89
2023/03/19 06:32:42;;;;;;;13.80;7.45;;;;;;;;;;5016820;28;20085;-88
2023/03/19 06:35:09;;;;;;;15.18;6.95;;;;;;;;;;5017989;28;20412;-88
2023/03/19 06:37:35;;;;;;;16.15;6.45;;;;;;;;;;5016806;28;20022;-89
2023/03/19 06:40:02;;;;;;;12.25;6.72;;;;;;;;;;5016857;28;20080;-90
2023/03/19 06:42:28;;;;;;;11.88;6.30;;;;;;;;;;5017485;28;20026;-88
2023/03/19 06:44:54;;;;;;;12.52;6.32;;;;;;;;;;5034588;28;20037;-88
2023/03/19 06:47:20;;;;;;;14.45;7.50;;;;;;;;;;5037792;28;20037;-88
2023/03/19 06:49:46;;;;;;;10.77;5.57;;;;;;;;;;5036166;28;20416;-88
2023/03/19 06:52:12;;;;;;;13.75;7.45;;;;;;;;;;5037563;28;20368;-88
2023/03/19 06:57:55;;;;;;;16.23;7.47;;;;;;;;;;5028293;28;20052;-88
2023/03/19 07:00:21;;;;;;;13.68;7.45;;;;;;;;;;5037377;28;20064;-90
2023/03/19 07:02:47;;;;;;;13.13;6.25;;;;;;;;;;5052832;28;20022;-90
2023/03/19 07:05:13;;;;;;;9.48;5.43;;;;;;;;;;5037637;28;20041;-91
2023/03/19 07:07:40;;;;;;;11.02;5.85;;;;;;;;;;5036461;28;20407;-93
2023/03/19 07:10:08;;;;;;;12.68;6.72;;;;;;;;;;5037201;28;20026;-94
2023/03/19 07:12:34;;;;;;;17.83;7.63;;;;;;;;;;5036204;28;20083;-91
2023/03/19 07:15:00;;;;;;;20.33;8.02;;;;;;;;;;5037530;28;20108;-90
2023/03/19 07:17:26;;;;;;;15.50;7.20;;;;;;;;;;5037663;28;20040;-89
2023/03/19 07:19:52;;;;;;;15.70;7.18;;;;;;;;;;5037647;28;20029;-88
2023/03/19 07:22:18;;;;;;;12.52;7.13;;;;;;;;;;5036298;28;20026;-90
2023/03/19 07:24:44;;;;;;;13.65;6.38;;;;;;;;;;5037328;28;20415;-91
2023/03/19 07:27:10;;;;;;;14.93;6.20;;;;;;;;;;5037424;28;20033;-90
2023/03/19 07:29:37;;;;;;;14.93;6.72;;;;;;;;;;5036349;28;20050;-89
2023/03/19 07:32:03;;;;;;;12.25;6.15;;;;;;;;;;5036927;28;20033;-88
2023/03/19 07:34:29;;;;;;;11.95;6.85;;;;;;;;;;5041107;28;20025;-89
2023/03/19 07:36:55;;;;;;;12.13;6.93;;;;;;;;;;5040862;28;20049;-89
2023/03/19 07:39:40;;;;;;;11.63;6.75;;;;;;;;;;5039638;28;20029;-89
2023/03/19 07:42:06;;;;;;;13.52;6.68;;;;;;;;;;5040789;28;20033;-88
2023/03/19 07:44:32;;;;;;;8.70;5.85;;;;;;;;;;5040507;28;20022;-89
2023/03/19 07:46:59;;;;;;;12.57;6.07;;;;;;;;;;5040606;28;20022;-89
2023/03/19 07:49:25;;;;;;;9.95;6.30;;;;;;;;;;5040525;28;20063;-89
2023/03/19 07:51:51;;;;;;;11.00;5.47;;;;;;;;;;5038916;28;20304;-87
2023/03/19 07:57:21;;;;;;;10.15;6.00;;;;;;;;;;5034866;28;20039;-88
2023/03/19 07:59:47;;;;;;;10.93;5.72;;;;;;;;;;5040646;28;20037;-90
2023/03/19 08:02:14;;;;;;;11.55;7.15;;;;;;;;;;5039683;28;20032;-89
2023/03/19 08:04:40;;;;;;;9.60;5.45;;;;;;;;;;5040100;28;20021;-89
2023/03/19 08:07:09;;;;;;;10.65;5.78;;;;;;;;;;5040131;28;20758;-88
2023/03/19 08:12:40;;;;;;;15.75;5.70;;;;;;;;;;5039594;28;20104;-89
2023/03/19 08:15:07;;;;;;;9.75;5.70;;;;;;;;;;5040239;28;20053;-89
2023/03/19 08:17:37;;;;;;;11.02;5.22;;;;;;;;;;5038985;28;20116;-87
2023/03/19 08:20:08;;;;;;;11.18;6.05;;;;;;;;;;5038946;28;20037;-89
2023/03/19 08:22:37;;;;;;;11.05;5.70;;;;;;;;;;5038929;28;20320;-89
2023/03/19 08:28:08;;;;;;;12.73;6.75;;;;;;;;;;5039918;28;20063;-88
2023/03/19 08:30:35;;;;;;;15.10;5.45;;;;;;;;;;5039554;28;20041;-88
2023/03/19 08:33:01;;;;;;;13.52;5.72;;;;;;;;;;5038184;28;20037;-88
2023/03/19 08:35:27;;;;;;;13.57;6.25;;;;;;;;;;5039605;28;20022;-88
2023/03/19 08:37:54;;;;;;;12.20;4.90;;;;;;;;;;5039856;28;20052;-89
2023/03/19 08:43:24;;;;;;;8.98;5.30;;;;;;;;;;5039627;28;20048;-88
2023/03/19 08:45:50;;;;;;;13.02;6.45;;;;;;;;;;5039046;28;20025;-87
2023/03/19 08:48:16;;;;;;;8.25;5.00;;;;;;;;;;5038652;28;20025;-89
2023/03/19 08:50:42;;;;;;;16.08;8.10;;;;;;;;;;5038353;28;20034;-89
2023/03/19 08:53:08;;;;;;;16.08;8.00;;;;;;;;;;5039107;28;20033;-88
2023/03/19 08:55:53;;;;;;;10.48;6.25;;;;;;;;;;5038280;28;20052;-86
2023/03/19 08:58:20;;;;;;;9.10;5.40;;;;;;;;;;5038370;28;20167;-87
2023/03/19 09:00:46;;;;;;;9.60;5.30;;;;;;;;;;5037823;28;20060;-88
2023/03/19 09:03:13;;;;;;;9.43;5.30;;;;;;;;;;5037925;28;20030;-88
2023/03/19 09:05:39;;;;;;;10.55;6.85;;;;;;;;;;5038876;28;20052;-86
2023/03/19 09:08:05;;;;;;;11.40;5.38;;;;;;;;;;5038016;28;20109;-86
2023/03/19 09:10:32;;;;;;;7.75;4.82;;;;;;;;;;5031652;28;20477;-88
2023/03/19 09:12:58;;;;;;;11.13;5.55;;;;;;;;;;5036585;28;20128;-88
2023/03/19 09:15:24;;;;;;;8.20;4.78;;;;;;;;;;5033901;28;20025;-87
2023/03/19 09:17:50;;;;;;;10.68;6.13;;;;;;;;;;5022993;28;20460;-87
2023/03/19 09:20:17;;;;;;;9.43;5.80;;;;;;;;;;5020515;28;20029;-86
2023/03/19 09:22:43;;;;;;;14.23;6.63;;;;;;;;;;5038803;28;20037;-86
2023/03/19 09:25:27;;;;;;;13.55;6.78;;;;;;;;;;5037999;28;20343;-85
2023/03/19 09:27:53;;;;;;;12.35;6.35;;;;;;;;;;5037980;28;20026;-83
2023/03/19 09:30:20;;;;;;;18.33;7.32;;;;;;;;;;5038391;28;20087;-84
2023/03/19 09:32:49;;;;;;;10.88;6.05;;;;;;;;;;5037880;28;20025;-88
2023/03/19 09:35:15;;;;;;;14.00;8.20;;;;;;;;;;5037955;28;20053;-87
2023/03/19 09:37:41;;;;;;;19.20;10.00;;;;;;;;;;5038370;28;20044;-87
2023/03/19 09:40:14;;;;;;;14.15;7.45;;;;;;;;;;5037390;28;20025;-87
2023/03/19 09:42:40;;;;;;;12.15;5.35;;;;;;;;;;5038617;28;20400;-88
2023/03/19 09:45:17;;;;;;;11.40;5.50;;;;;;;;;;5037583;28;20025;-89
2023/03/19 09:47:44;;;;;;;10.27;5.47;;;;;;;;;;5039178;28;20051;-85
2023/03/19 09:50:21;;;;;;;10.02;5.88;;;;;;;;;;5037280;28;20391;-88
2023/03/19 09:53:07;;;;;;;12.00;5.50;;;;;;;;;;5036563;28;20056;-86
2023/03/19 09:56:03;;;;;;;13.68;5.85;;;;;;;;;;5028449;28;20025;-87
2023/03/19 09:58:33;;;;;;;10.48;5.68;;;;;;;;;;5036638;28;20083;-88
2023/03/19 10:01:00;;;;;;;15.48;7.22;;;;;;;;;;5038184;28;20026;-86
2023/03/19 10:03:41;;;;;;;10.52;5.63;;;;;;;;;;5038388;28;20029;-83
2023/03/19 10:06:10;;;;;;;21.52;7.63;;;;;;;;;;5037758;28;20507;-87
2023/03/19 10:08:49;;;;;;;43.08;12.45;;;;;;;;;;5036745;28;20040;-87
2023/03/19 10:11:18;;;;;;;13.57;6.68;;;;;;;;;;5037134;28;20036;-84
2023/03/19 10:13:47;;;;;;;11.32;5.90;;;;;;;;;;5036889;28;20030;-86
2023/03/19 10:16:17;;;;;;;18.70;9.13;;;;;;;;;;5036808;28;20035;-86
2023/03/19 10:18:46;;;;;;;12.13;6.65;;;;;;;;;;5036930;28;20053;-87
2023/03/19 10:21:33;;;;;;;8.85;5.30;;;;;;;;;;5037633;28;20105;-86
2023/03/19 10:24:02;;;;;;;8.93;5.00;;;;;;;;;;5037923;28;20030;-85
2023/03/19 10:26:35;;;;;;;13.90;5.60;;;;;;;;;;5037603;28;20101;-86
2023/03/19 10:29:01;;;;;;;10.18;5.03;;;;;;;;;;5036415;28;20053;-85
2023/03/19 10:31:28;;;;;;;8.05;4.50;;;;;;;;;;5036764;28;20025;-87
2023/03/19 10:34:10;;;;;;;12.80;5.72;;;;;;;;;;5037390;28;20025;-88
2023/03/19 10:36:36;;;;;;;13.23;5.77;;;;;;;;;;5036648;28;20021;-87
2023/03/19 10:39:05;;;;;;;10.00;5.28;;;;;;;;;;5036070;28;20251;-86
2023/03/19 10:41:31;;;;;;;15.55;7.97;;;;;;;;;;5037129;28;20021;-87
2023/03/19 10:44:08;;;;;;;12.32;7.85;;;;;;;;;;5036115;28;20309;-88
2023/03/19 10:46:40;;;;;;;9.98;6.90;;;;;;;;;;5037585;28;20483;-88
2023/03/19 10:49:12;;;;;;;10.82;5.95;;;;;;;;;;5037371;28;20037;-87
2023/03/19 10:51:39;;;;;;;10.23;5.55;;;;;;;;;;5037347;28;20355;-87
2023/03/19 10:54:18;;;;;;;8.55;5.68;;;;;;;;;;5036692;28;20026;-87
2023/03/19 10:56:46;;;;;;;9.27;4.97;;;;;;;;;;5036989;28;20029;-86
2023/03/19 10:59:21;;;;;;;11.82;5.80;;;;;;;;;;5035112;28;20045;-88
2023/03/19 11:01:47;;;;;;;7.25;4.75;;;;;;;;;;5024227;28;20026;-89
2023/03/19 11:04:18;;;;;;;10.32;6.28;;;;;;;;;;5017944;28;20057;-89
2023/03/19 11:06:48;;;;;;;20.38;10.75;;;;;;;;;;5016467;28;20053;-88
2023/03/19 11:09:18;;;;;;;19.17;8.57;;;;;;;;;;5021713;28;20049;-88
2023/03/19 11:11:46;;;;;;;14.60;8.63;;;;;;;;;;5020275;28;20447;-89
2023/03/19 11:14:15;;;;;;;11.05;7.05;;;;;;;;;;5020465;28;20494;-87
2023/03/19 11:16:47;;;;;;;10.27;5.68;;;;;;;;;;5029030;28;20025;-88
2023/03/19 11:19:18;;;;;;;8.68;5.03;;;;;;;;;;5040391;28;20407;-86
2023/03/19 11:21:55;;;;;;;8.70;5.38;;;;;;;;;;5041325;28;20499;-88
2023/03/19 11:24:21;;;;;;;9.93;4.63;;;;;;;;;;5040825;28;20030;-89
2023/03/19 11:26:54;;;;;;;10.07;6.18;;;;;;;;;;5039588;28;20105;-90
2023/03/19 11:29:20;;;;;;;13.40;7.15;;;;;;;;;;5040874;28;20072;-86
2023/03/19 11:31:51;;;;;;;18.98;7.97;;;;;;;;;;5040359;28;20029;-87
2023/03/19 11:34:20;;;;;;;12.55;7.05;;;;;;;;;;5041529;28;20025;-87
2023/03/19 11:36:49;;;;;;;18.13;7.00;;;;;;;;;;5040571;28;20057;-88
2023/03/19 11:39:31;;;;;;;11.02;6.32;;;;;;;;;;5039907;28;20040;-85
2023/03/19 11:42:34;;;;;;;8.88;5.95;;;;;;;;;;5032989;28;20028;-85
2023/03/19 11:45:12;;;;;;;12.63;7.65;;;;;;;;;;5035702;28;20030;-86
2023/03/19 11:47:54;;;;;;;18.15;8.15;;;;;;;;;;5034979;28;20049;-85
2023/03/19 11:50:21;;;;;;;13.77;7.95;;;;;;;;;;5020901;28;20077;-86
2023/03/19 11:53:01;;;;;;;8.70;5.35;;;;;;;;;;5030539;28;20297;-88
2023/03/19 11:55:45;;;;;;;50.33;19.52;;;;;;;;;;5038322;28;20057;-86
2023/03/19 11:58:12;;;;;;;13.55;7.07;;;;;;;;;;5039354;28;20111;-85
2023/03/19 12:01:04;;;;;;;14.65;7.50;;;;;;;;;;5036637;28;20025;-85
2023/03/19 12:03:30;;;;;;;11.18;6.97;;;;;;;;;;4978718;28;20034;-85
2023/03/19 12:06:00;;;;;;;9.82;5.75;;;;;;;;;;4943891;29;20446;-86
2023/03/19 12:08:26;;;;;;;7.47;4.72;;;;;;;;;;4978607;28;20047;-86
2023/03/19 12:11:03;;;;;;;8.23;4.45;;;;;;;;;;4979740;28;20031;-85
2023/03/19 12:13:47;;;;;;;7.55;5.32;;;;;;;;;;4979593;28;20110;-85
2023/03/19 12:16:14;;;;;;;6.70;4.93;;;;;;;;;;4979533;28;20089;-86
2023/03/19 12:18:52;;;;;;;9.98;5.25;;;;;;;;;;4993641;28;20029;-85
2023/03/19 12:21:37;;;;;;;7.63;5.53;;;;;;;;;;4998875;28;20116;-85
2023/03/19 12:24:06;;;;;;;8.68;5.97;;;;;;;;;;4998758;28;20053;-83
2023/03/19 12:26:35;;;;;;;10.43;5.65;;;;;;;;;;4979225;28;20081;-86
2023/03/19 12:29:01;;;;;;;7.05;5.00;;;;;;;;;;4959446;29;20342;-84
2023/03/19 12:31:41;;;;;;;7.03;4.78;;;;;;;;;;4974763;28;20039;-86
2023/03/19 12:34:19;;;;;;;9.75;5.55;;;;;;;;;;4961686;28;20240;-83
2023/03/19 12:36:50;;;;;;;9.68;4.78;;;;;;;;;;4971905;28;20050;-86
2023/03/19 12:39:19;;;;;;;6.57;4.30;;;;;;;;;;4966451;28;20505;-86
2023/03/19 12:44:53;;;;;;;8.98;4.95;;;;;;;;;;5029531;28;20099;-87
2023/03/19 12:47:21;;;;;;;8.13;5.43;;;;;;;;;;5039613;28;20033;-87
2023/03/19 12:49:57;;;;;;;12.75;7.05;;;;;;;;;;5038380;28;20032;-89
2023/03/19 12:52:43;;;;;;;12.60;5.95;;;;;;;;;;5054589;28;20044;-85
2023/03/19 12:55:12;;;;;;;9.25;5.82;;;;;;;;;;5039222;28;20032;-86
2023/03/19 12:57:50;;;;;;;11.45;6.57;;;;;;;;;;5038175;28;20045;-88
2023/03/19 13:00:35;;;;;;;8.32;5.68;;;;;;;;;;5038122;28;20071;-86
2023/03/19 13:03:04;;;;;;;10.40;5.43;;;;;;;;;;5038794;28;20028;-85
2023/03/19 13:05:36;;;;;;;9.98;6.00;;;;;;;;;;5039086;28;20025;-89
2023/03/19 13:08:22;;;;;;;9.55;5.25;;;;;;;;;;5030153;28;20018;-88
2023/03/19 13:10:48;;;;;;;8.77;5.18;;;;;;;;;;5027399;28;20045;-88
2023/03/19 13:13:33;;;;;;;8.38;4.85;;;;;;;;;;5037799;28;20095;-88
2023/03/19 13:16:03;;;;;;;7.72;5.00;;;;;;;;;;5023017;28;20026;-88
2023/03/19 13:18:36;;;;;;;7.88;5.07;;;;;;;;;;5038645;28;20047;-88
2023/03/19 13:21:11;;;;;;;8.43;5.28;;;;;;;;;;5038558;28;20029;-88
2023/03/19 13:23:38;;;;;;;7.68;5.35;;;;;;;;;;5037818;28;20029;-88
2023/03/19 13:26:06;;;;;;;9.88;5.47;;;;;;;;;;5037662;28;20018;-88
2023/03/19 13:28:53;;;;;;;10.07;5.15;;;;;;;;;;5037511;28;20029;-88
2023/03/19 13:31:23;;;;;;;9.13;5.70;;;;;;;;;;5036858;28;20045;-88
2023/03/19 13:34:01;;;;;;;10.98;5.70;;;;;;;;;;5034993;28;20028;-88
2023/03/19 13:36:30;;;;;;;9.38;5.90;;;;;;;;;;5017259;28;20040;-88
2023/03/19 13:38:57;;;;;;;10.85;5.60;;;;;;;;;;5018125;28;20034;-87
2023/03/19 13:41:43;;;;;;;9.13;5.55;;;;;;;;;;5018454;28;20301;-88
2023/03/19 13:44:21;;;;;;;10.30;5.70;;;;;;;;;;4961427;28;20039;-88
2023/03/19 13:46:51;;;;;;;10.40;5.25;;;;;;;;;;4961878;28;20039;-87
2023/03/19 13:49:26;;;;;;;10.85;5.50;;;;;;;;;;4980966;28;20429;-89
2023/03/19 13:52:00;;;;;;;7.22;4.95;;;;;;;;;;4997171;28;20299;-88
2023/03/19 13:54:39;;;;;;;7.70;5.25;;;;;;;;;;4992051;28;20034;-89
2023/03/19 13:57:13;;;;;;;6.57;5.00;;;;;;;;;;4997169;28;20022;-87
2023/03/19 13:59:42;;;;;;;10.95;5.60;;;;;;;;;;4996607;28;20042;-89
2023/03/19 14:02:24;;;;;;;9.23;5.30;;;;;;;;;;4980936;28;20433;-88
2023/03/19 14:05:05;;;;;;;8.75;5.57;;;;;;;;;;4997097;28;20026;-88
2023/03/19 14:07:41;;;;;;;9.35;5.93;;;;;;;;;;4980626;28;20113;-88
2023/03/19 14:10:16;;;;;;;6.85;4.93;;;;;;;;;;4996893;28;20030;-87
2023/03/19 14:12:43;;;;;;;9.30;4.95;;;;;;;;;;4980958;28;20038;-88
2023/03/19 14:26:27;;;;;;;8.13;5.03;;;;;;;;;;5135733;27;20371;-88
2023/03/19 14:35:18;;;;;;;10.73;5.95;;;;;;;;;;5135603;28;20042;-87
2023/03/19 14:37:48;;;;;;;11.77;6.10;;;;;;;;;;5115293;28;20053;-87
2023/03/19 14:40:18;;;;;;;10.77;6.28;;;;;;;;;;5097033;28;20327;-86
2023/03/19 14:43:07;;;;;;;9.50;6.25;;;;;;;;;;5115133;28;20043;-87
2023/03/19 14:45:56;;;;;;;22.52;11.13;;;;;;;;;;5115218;28;20142;-89
2023/03/19 14:48:22;;;;;;;31.95;15.52;;;;;;;;;;5032512;28;20037;-88
2023/03/19 14:50:51;;;;;;;39.42;20.80;;;;;;;;;;5044736;28;20469;-88
2023/03/19 14:53:20;;;;;;;20.85;9.68;;;;;;;;;;5034203;28;20037;-88
2023/03/19 14:55:50;;;;;;;13.88;8.55;;;;;;;;;;5048803;28;20044;-89
2023/03/19 14:58:16;;;;;;;9.50;6.18;;;;;;;;;;5050897;28;20021;-87
2023/03/19 15:03:45;;;;;;;18.35;9.98;;;;;;;;;;5032901;28;20443;-89
2023/03/19 15:06:13;;;;;;;15.27;9.68;;;;;;;;;;5032242;28;20025;-83
2023/03/19 15:08:39;;;;;;;13.20;8.43;;;;;;;;;;5033655;28;20021;-84
2023/03/19 15:11:31;;;;;;;11.95;7.93;;;;;;;;;;5046963;28;20399;-84
2023/03/19 15:14:03;;;;;;;13.98;7.82;;;;;;;;;;5049137;28;20057;-83
2023/03/19 15:16:38;;;;;;;14.18;7.60;;;;;;;;;;5048825;28;20029;-85
2023/03/19 15:19:07;;;;;;;15.90;7.32;;;;;;;;;;5031846;28;20030;-84
2023/03/19 15:21:34;;;;;;;14.88;7.75;;;;;;;;;;5030959;28;20130;-83
2023/03/19 15:24:00;;;;;;;16.08;7.57;;;;;;;;;;5015610;28;20034;-83
2023/03/19 15:26:30;;;;;;;12.02;7.03;;;;;;;;;;5080735;28;20044;-80
2023/03/19 15:28:56;;;;;;;18.98;10.25;;;;;;;;;;5091373;28;20055;-83
2023/03/19 15:31:23;;;;;;;16.45;8.52;;;;;;;;;;5100315;28;20310;-83
2023/03/19 15:33:49;;;;;;;15.43;7.97;;;;;;;;;;5081874;28;20047;-83
2023/03/19 15:36:18;;;;;;;17.40;8.57;;;;;;;;;;5100282;28;20421;-83
2023/03/19 15:39:02;;;;;;;15.48;8.30;;;;;;;;;;5099994;28;20021;-83
2023/03/19 15:41:30;;;;;;;20.45;11.00;;;;;;;;;;5082294;28;20027;-84
2023/03/19 15:43:56;;;;;;;17.20;10.57;;;;;;;;;;5082010;28;20028;-83
2023/03/19 15:46:25;;;;;;;15.98;9.77;;;;;;;;;;5099828;28;20051;-83
2023/03/19 15:49:06;;;;;;;14.23;8.55;;;;;;;;;;5082092;28;20032;-83
2023/03/19 15:51:32;;;;;;;13.13;8.30;;;;;;;;;;5099855;28;20078;-83
2023/03/19 15:53:59;;;;;;;16.35;9.98;;;;;;;;;;5081939;28;20531;-84
2023/03/19 15:56:26;;;;;;;21.25;10.68;;;;;;;;;;5100100;28;20034;-84
2023/03/19 15:58:57;;;;;;;26.15;15.93;;;;;;;;;;5099536;28;20020;-84
2023/03/19 16:01:23;;;;;;;36.93;20.17;;;;;;;;;;5099730;28;20024;-84
2023/03/19 16:04:04;;;;;;;38.25;19.85;;;;;;;;;;5099734;28;20257;-84